createdAt,value
2018-07-20T00:00:25.303Z,1004.95
2018-07-20T00:01:25.260Z,1004.95
2018-07-20T00:02:25.239Z,1004.96
2018-07-20T00:03:25.169Z,1004.95
2018-07-20T00:04:25.126Z,1004.95
2018-07-20T00:05:25.074Z,1004.92
2018-07-20T00:06:25.035Z,1004.92
2018-07-20T00:07:25.006Z,1004.95
2018-07-20T00:08:24.940Z,1004.94
2018-07-20T00:09:24.891Z,1004.94
2018-07-20T00:10:24.851Z,1004.95
2018-07-20T00:11:24.801Z,1004.92
2018-07-20T00:12:24.783Z,1004.91
2018-07-20T00:13:24.711Z,1004.90
2018-07-20T00:14:24.670Z,1004.91
2018-07-20T00:15:24.631Z,1004.89
2018-07-20T00:16:24.574Z,1004.88
2018-07-20T00:17:24.553Z,1004.87
2018-07-20T00:18:24.483Z,1004.84
2018-07-20T00:19:24.437Z,1004.85
2018-07-20T00:20:24.391Z,1004.83
2018-07-20T00:21:24.344Z,1004.85
2018-07-20T00:22:24.322Z,1004.89
2018-07-20T00:23:24.257Z,1004.88
2018-07-20T00:24:24.209Z,1004.85
2018-07-20T00:25:24.162Z,1004.83
2018-07-20T00:26:24.118Z,1004.85
2018-07-20T00:27:24.097Z,1004.84
2018-07-20T00:28:24.027Z,1004.83
2018-07-20T00:29:23.983Z,1004.84
2018-07-20T00:30:23.996Z,1004.83
2018-07-20T00:31:23.887Z,1004.87
2018-07-20T00:32:23.864Z,1004.86
2018-07-20T00:33:23.798Z,1004.85
2018-07-20T00:34:23.755Z,1004.89
2018-07-20T00:35:23.707Z,1004.88
2018-07-20T00:36:23.658Z,1004.87
2018-07-20T00:37:23.638Z,1004.91
2018-07-20T00:38:23.565Z,1004.88
2018-07-20T00:39:23.518Z,1004.87
2018-07-20T00:40:23.473Z,1004.85
2018-07-20T00:41:23.433Z,1004.86
2018-07-20T00:42:23.408Z,1004.88
2018-07-20T00:43:23.337Z,1004.86
2018-07-20T00:44:23.293Z,1004.86
2018-07-20T00:45:23.248Z,1004.85
2018-07-20T00:46:23.199Z,1004.83
2018-07-20T00:47:23.180Z,1004.80
2018-07-20T00:48:23.106Z,1004.81
2018-07-20T00:49:23.059Z,1004.76
2018-07-20T00:50:23.017Z,1004.77
2018-07-20T00:51:22.966Z,1004.76
2018-07-20T00:52:22.947Z,1004.75
2018-07-20T00:53:22.901Z,1004.76
2018-07-20T00:54:22.834Z,1004.76
2018-07-20T00:55:22.787Z,1004.74
2018-07-20T00:56:22.739Z,1004.73
2018-07-20T00:57:22.697Z,1004.74
2018-07-20T00:58:22.673Z,1004.73
2018-07-20T00:59:22.602Z,1004.71
2018-07-20T01:00:22.557Z,1004.67
2018-07-20T01:01:22.511Z,1004.66
2018-07-20T01:02:22.465Z,1004.66
2018-07-20T01:03:22.442Z,1004.65
2018-07-20T01:04:22.370Z,1004.60
2018-07-20T01:05:22.360Z,1004.63
2018-07-20T01:06:22.282Z,1004.60
2018-07-20T01:07:22.234Z,1004.64
2018-07-20T01:08:22.209Z,1004.62
2018-07-20T01:09:22.143Z,1004.59
2018-07-20T01:10:22.094Z,1004.60
2018-07-20T01:11:22.052Z,1004.59
2018-07-20T01:12:22.007Z,1004.56
2018-07-20T01:13:21.981Z,1004.58
2018-07-20T01:14:21.912Z,1004.54
2018-07-20T01:15:21.869Z,1004.53
2018-07-20T01:16:21.818Z,1004.53
2018-07-20T01:17:21.773Z,1004.49
2018-07-20T01:18:21.753Z,1004.50
2018-07-20T01:19:21.682Z,1004.52
2018-07-20T01:20:21.634Z,1004.48
2018-07-20T01:21:21.594Z,1004.49
2018-07-20T01:22:21.542Z,1004.51
2018-07-20T01:23:21.517Z,1004.47
2018-07-20T01:24:21.452Z,1004.47
2018-07-20T01:25:21.404Z,1004.46
2018-07-20T01:26:21.358Z,1004.47
2018-07-20T01:27:21.313Z,1004.48
2018-07-20T01:28:21.287Z,1004.43
2018-07-20T01:29:21.215Z,1004.45
2018-07-20T01:30:21.173Z,1004.44
2018-07-20T01:31:21.128Z,1004.48
2018-07-20T01:32:21.079Z,1004.41
2018-07-20T01:33:21.055Z,1004.43
2018-07-20T01:34:20.992Z,1004.42
2018-07-20T01:35:20.939Z,1004.43
2018-07-20T01:36:20.896Z,1004.42
2018-07-20T01:37:20.850Z,1004.44
2018-07-20T01:38:20.827Z,1004.43
2018-07-20T01:39:20.757Z,1004.38
2018-07-20T01:40:20.712Z,1004.39
2018-07-20T01:41:20.661Z,1004.39
2018-07-20T01:42:20.621Z,1004.36
2018-07-20T01:43:20.595Z,1004.36
2018-07-20T01:44:20.528Z,1004.34
2018-07-20T01:45:20.479Z,1004.37
2018-07-20T01:46:20.435Z,1004.34
2018-07-20T01:47:20.383Z,1004.30
2018-07-20T01:48:20.362Z,1004.32
2018-07-20T01:49:20.294Z,1004.28
2018-07-20T01:50:20.248Z,1004.31
2018-07-20T01:51:20.203Z,1004.33
2018-07-20T01:52:20.151Z,1004.31
2018-07-20T01:53:20.131Z,1004.35
2018-07-20T01:54:20.062Z,1004.30
2018-07-20T01:55:20.015Z,1004.33
2018-07-20T01:56:19.968Z,1004.33
2018-07-20T01:57:19.922Z,1004.32
2018-07-20T01:58:19.896Z,1004.28
2018-07-20T01:59:19.826Z,1004.34
2018-07-20T02:00:19.782Z,1004.31
2018-07-20T02:01:19.737Z,1004.28
2018-07-20T02:02:19.686Z,1004.27
2018-07-20T02:03:19.665Z,1004.28
2018-07-20T02:04:19.596Z,1004.26
2018-07-20T02:05:19.547Z,1004.30
2018-07-20T02:06:19.501Z,1004.27
2018-07-20T02:07:19.450Z,1004.29
2018-07-20T02:08:19.437Z,1004.28
2018-07-20T02:09:19.362Z,1004.29
2018-07-20T02:10:19.315Z,1004.29
2018-07-20T02:11:19.268Z,1004.30
2018-07-20T02:12:19.233Z,1004.26
2018-07-20T02:13:19.200Z,1004.23
2018-07-20T02:14:19.129Z,1004.23
2018-07-20T02:15:19.085Z,1004.23
2018-07-20T02:16:19.037Z,1004.25
2018-07-20T02:17:18.990Z,1004.23
2018-07-20T02:18:18.961Z,1004.22
2018-07-20T02:19:18.893Z,1004.24
2018-07-20T02:20:18.851Z,1004.23
2018-07-20T02:21:18.798Z,1004.20
2018-07-20T02:22:18.756Z,1004.21
2018-07-20T02:23:18.745Z,1004.21
2018-07-20T02:24:18.660Z,1004.24
2018-07-20T02:25:18.619Z,1004.22
2018-07-20T02:26:18.568Z,1004.18
2018-07-20T02:27:18.525Z,1004.19
2018-07-20T02:28:18.476Z,1004.16
2018-07-20T02:29:18.449Z,1004.16
2018-07-20T02:30:18.381Z,1004.15
2018-07-20T02:31:18.332Z,1004.17
2018-07-20T02:32:18.289Z,1004.16
2018-07-20T02:33:18.241Z,1004.14
2018-07-20T02:34:18.218Z,1004.10
2018-07-20T02:35:18.159Z,1004.12
2018-07-20T02:36:18.101Z,1004.10
2018-07-20T02:37:18.055Z,1004.11
2018-07-20T02:38:18.007Z,1004.12
2018-07-20T02:39:17.982Z,1004.08
2018-07-20T02:40:17.911Z,1004.05
2018-07-20T02:41:17.868Z,1004.08
2018-07-20T02:42:17.819Z,1004.08
2018-07-20T02:43:17.780Z,1004.05
2018-07-20T02:44:17.753Z,1004.03
2018-07-20T02:45:17.681Z,1004.06
2018-07-20T02:46:17.700Z,1004.05
2018-07-20T02:47:17.595Z,1004.07
2018-07-20T02:48:17.535Z,1004.04
2018-07-20T02:49:17.511Z,1004.02
2018-07-20T02:50:17.442Z,1004.02
2018-07-20T02:51:17.393Z,1004.01
2018-07-20T02:52:17.344Z,1004.00
2018-07-20T02:53:17.303Z,1003.99
2018-07-20T02:54:17.276Z,1003.96
2018-07-20T02:55:17.204Z,1003.95
2018-07-20T02:56:17.155Z,1003.94
2018-07-20T02:57:17.110Z,1003.93
2018-07-20T02:58:17.063Z,1003.94
2018-07-20T02:59:17.036Z,1003.93
2018-07-20T03:00:16.966Z,1003.94
2018-07-20T03:01:16.923Z,1003.91
2018-07-20T03:02:16.877Z,1003.95
2018-07-20T03:03:16.825Z,1003.94
2018-07-20T03:04:16.812Z,1003.95
2018-07-20T03:05:16.740Z,1003.95
2018-07-20T03:06:16.687Z,1003.92
2018-07-20T03:07:16.638Z,1003.92
2018-07-20T03:08:16.593Z,1003.87
2018-07-20T03:09:16.571Z,1003.91
2018-07-20T03:10:16.500Z,1003.91
2018-07-20T03:11:16.454Z,1003.92
2018-07-20T03:12:16.404Z,1003.93
2018-07-20T03:13:16.357Z,1003.95
2018-07-20T03:14:16.338Z,1003.92
2018-07-20T03:15:16.261Z,1003.92
2018-07-20T03:16:16.218Z,1003.92
2018-07-20T03:17:16.166Z,1003.91
2018-07-20T03:18:16.123Z,1003.91
2018-07-20T03:19:16.094Z,1003.92
2018-07-20T03:20:16.025Z,1003.91
2018-07-20T03:21:15.980Z,1003.91
2018-07-20T03:22:15.932Z,1003.90
2018-07-20T03:23:15.885Z,1003.94
2018-07-20T03:24:15.862Z,1003.92
2018-07-20T03:25:15.788Z,1003.86
2018-07-20T03:26:15.747Z,1003.88
2018-07-20T03:27:15.695Z,1003.89
2018-07-20T03:28:15.649Z,1003.88
2018-07-20T03:29:15.630Z,1003.87
2018-07-20T03:30:15.556Z,1003.89
2018-07-20T03:31:15.509Z,1003.85
2018-07-20T03:32:15.464Z,1003.85
2018-07-20T03:33:15.411Z,1003.88
2018-07-20T03:34:15.390Z,1003.86
2018-07-20T03:35:15.320Z,1003.86
2018-07-20T03:36:15.271Z,1003.85
2018-07-20T03:37:15.224Z,1003.86
2018-07-20T03:38:15.180Z,1003.86
2018-07-20T03:39:15.154Z,1003.86
2018-07-20T03:40:15.082Z,1003.84
2018-07-20T03:41:15.036Z,1003.86
2018-07-20T03:42:14.989Z,1003.85
2018-07-20T03:43:14.941Z,1003.84
2018-07-20T03:44:14.915Z,1003.84
2018-07-20T03:45:14.846Z,1003.83
2018-07-20T03:46:14.800Z,1003.85
2018-07-20T03:47:14.750Z,1003.87
2018-07-20T03:48:14.708Z,1003.83
2018-07-20T03:49:14.685Z,1003.84
2018-07-20T03:50:14.616Z,1003.82
2018-07-20T03:51:14.572Z,1003.82
2018-07-20T03:52:14.540Z,1003.82
2018-07-20T03:53:14.473Z,1003.82
2018-07-20T03:54:14.421Z,1003.80
2018-07-20T03:55:14.400Z,1003.78
2018-07-20T03:56:14.328Z,1003.79
2018-07-20T03:57:14.277Z,1003.80
2018-07-20T03:58:14.237Z,1003.78
2018-07-20T03:59:14.183Z,1003.81
2018-07-20T04:00:14.164Z,1003.79
2018-07-20T04:01:14.093Z,1003.81
2018-07-20T04:02:14.047Z,1003.80
2018-07-20T04:03:13.995Z,1003.80
2018-07-20T04:04:13.948Z,1003.77
2018-07-20T04:05:13.924Z,1003.79
2018-07-20T04:06:13.856Z,1003.79
2018-07-20T04:07:13.809Z,1003.80
2018-07-20T04:08:13.762Z,1003.82
2018-07-20T04:09:13.714Z,1003.79
2018-07-20T04:10:13.710Z,1003.79
2018-07-20T04:11:13.621Z,1003.81
2018-07-20T04:12:13.571Z,1003.78
2018-07-20T04:13:13.527Z,1003.82
2018-07-20T04:14:13.475Z,1003.77
2018-07-20T04:15:13.456Z,1003.78
2018-07-20T04:16:13.386Z,1003.79
2018-07-20T04:17:13.343Z,1003.78
2018-07-20T04:18:13.291Z,1003.78
2018-07-20T04:19:13.247Z,1003.80
2018-07-20T04:20:13.223Z,1003.78
2018-07-20T04:21:13.154Z,1003.75
2018-07-20T04:22:13.113Z,1003.79
2018-07-20T04:23:13.056Z,1003.79
2018-07-20T04:24:13.011Z,1003.76
2018-07-20T04:25:12.982Z,1003.76
2018-07-20T04:26:12.913Z,1003.72
2018-07-20T04:27:12.866Z,1003.76
2018-07-20T04:28:12.821Z,1003.74
2018-07-20T04:29:12.773Z,1003.76
2018-07-20T04:30:12.750Z,1003.76
2018-07-20T04:31:12.680Z,1003.76
2018-07-20T04:32:12.637Z,1003.74
2018-07-20T04:33:12.591Z,1003.75
2018-07-20T04:34:12.540Z,1003.78
2018-07-20T04:35:12.512Z,1003.76
2018-07-20T04:36:12.442Z,1003.75
2018-07-20T04:37:12.396Z,1003.74
2018-07-20T04:38:12.347Z,1003.75
2018-07-20T04:39:12.305Z,1003.77
2018-07-20T04:40:12.280Z,1003.75
2018-07-20T04:41:12.223Z,1003.72
2018-07-20T04:42:12.164Z,1003.74
2018-07-20T04:43:12.116Z,1003.76
2018-07-20T04:44:12.070Z,1003.71
2018-07-20T04:45:12.046Z,1003.74
2018-07-20T04:46:11.974Z,1003.73
2018-07-20T04:47:11.931Z,1003.73
2018-07-20T04:48:11.883Z,1003.74
2018-07-20T04:49:11.837Z,1003.75
2018-07-20T04:50:11.818Z,1003.76
2018-07-20T04:51:11.740Z,1003.75
2018-07-20T04:52:11.699Z,1003.77
2018-07-20T04:53:11.651Z,1003.76
2018-07-20T04:54:11.604Z,1003.73
2018-07-20T04:55:11.580Z,1003.73
2018-07-20T04:56:11.511Z,1003.72
2018-07-20T04:57:11.460Z,1003.74
2018-07-20T04:58:11.418Z,1003.73
2018-07-20T04:59:11.367Z,1003.75
2018-07-20T05:00:11.347Z,1003.74
2018-07-20T05:01:11.282Z,1003.74
2018-07-20T05:02:11.230Z,1003.71
2018-07-20T05:03:11.181Z,1003.67
2018-07-20T05:04:11.136Z,1003.68
2018-07-20T05:05:11.117Z,1003.70
2018-07-20T05:06:11.044Z,1003.66
2018-07-20T05:07:10.998Z,1003.70
2018-07-20T05:08:10.954Z,1003.69
2018-07-20T05:09:10.908Z,1003.72
2018-07-20T05:10:10.885Z,1003.74
2018-07-20T05:11:10.812Z,1003.74
2018-07-20T05:12:10.772Z,1003.68
2018-07-20T05:13:10.722Z,1003.70
2018-07-20T05:14:10.673Z,1003.72
2018-07-20T05:15:10.646Z,1003.69
2018-07-20T05:16:10.603Z,1003.71
2018-07-20T05:17:10.541Z,1003.72
2018-07-20T05:18:10.489Z,1003.70
2018-07-20T05:19:10.445Z,1003.70
2018-07-20T05:20:10.420Z,1003.63
2018-07-20T05:21:10.348Z,1003.64
2018-07-20T05:22:10.306Z,1003.64
2018-07-20T05:23:10.263Z,1003.62
2018-07-20T05:24:10.229Z,1003.61
2018-07-20T05:25:10.193Z,1003.61
2018-07-20T05:26:10.120Z,1003.61
2018-07-20T05:27:10.077Z,1003.60
2018-07-20T05:28:10.024Z,1003.62
2018-07-20T05:29:09.983Z,1003.62
2018-07-20T05:30:09.935Z,1003.64
2018-07-20T05:31:09.955Z,1003.64
2018-07-20T05:32:09.843Z,1003.64
2018-07-20T05:33:09.801Z,1003.64
2018-07-20T05:34:09.755Z,1003.63
2018-07-20T05:35:09.709Z,1003.62
2018-07-20T05:36:09.682Z,1003.61
2018-07-20T05:37:09.621Z,1003.62
2018-07-20T05:38:09.619Z,1003.54
2018-07-20T05:39:09.520Z,1003.57
2018-07-20T05:40:09.478Z,1003.55
2018-07-20T05:41:09.454Z,1003.52
2018-07-20T05:42:09.386Z,1003.54
2018-07-20T05:43:09.337Z,1003.49
2018-07-20T05:44:09.296Z,1003.50
2018-07-20T05:45:09.269Z,1003.54
2018-07-20T05:46:09.224Z,1003.53
2018-07-20T05:47:09.154Z,1003.52
2018-07-20T05:48:09.107Z,1003.52
2018-07-20T05:49:09.065Z,1003.52
2018-07-20T05:50:09.021Z,1003.54
2018-07-20T05:51:09.001Z,1003.50
2018-07-20T05:52:08.933Z,1003.57
2018-07-20T05:53:08.878Z,1003.53
2018-07-20T05:54:08.836Z,1003.53
2018-07-20T05:55:08.790Z,1003.56
2018-07-20T05:56:08.767Z,1003.56
2018-07-20T05:57:08.702Z,1003.57
2018-07-20T05:58:08.658Z,1003.59
2018-07-20T05:59:08.605Z,1003.57
2018-07-20T06:00:08.560Z,1003.59
2018-07-20T06:01:08.541Z,1003.61
2018-07-20T06:02:08.471Z,1003.61
2018-07-20T06:03:08.425Z,1003.61
2018-07-20T06:04:08.419Z,1003.61
2018-07-20T06:05:08.335Z,1003.61
2018-07-20T06:06:08.318Z,1003.65
2018-07-20T06:07:08.246Z,1003.61
2018-07-20T06:08:08.202Z,1003.63
2018-07-20T06:09:08.153Z,1003.63
2018-07-20T06:10:08.116Z,1003.63
2018-07-20T06:11:08.093Z,1003.67
2018-07-20T06:12:08.021Z,1003.63
2018-07-20T06:13:07.972Z,1003.62
2018-07-20T06:14:07.937Z,1003.62
2018-07-20T06:15:07.882Z,1003.61
2018-07-20T06:16:07.864Z,1003.62
2018-07-20T06:17:07.792Z,1003.63
2018-07-20T06:18:07.748Z,1003.66
2018-07-20T06:19:07.708Z,1003.67
2018-07-20T06:20:07.655Z,1003.65
2018-07-20T06:21:07.633Z,1003.66
2018-07-20T06:22:07.563Z,1003.64
2018-07-20T06:23:07.522Z,1003.70
2018-07-20T06:24:07.474Z,1003.68
2018-07-20T06:25:07.433Z,1003.67
2018-07-20T06:26:07.408Z,1003.67
2018-07-20T06:27:07.348Z,1003.66
2018-07-20T06:28:07.298Z,1003.68
2018-07-20T06:29:07.252Z,1003.62
2018-07-20T06:30:07.204Z,1003.67
2018-07-20T06:31:07.186Z,1003.65
2018-07-20T06:32:07.119Z,1003.60
2018-07-20T06:33:07.076Z,1003.62
2018-07-20T06:34:07.031Z,1003.62
2018-07-20T06:35:07.014Z,1003.57
2018-07-20T06:36:06.970Z,1003.60
2018-07-20T06:37:06.895Z,1003.60
2018-07-20T06:38:06.852Z,1003.63
2018-07-20T06:39:06.804Z,1003.62
2018-07-20T06:40:06.764Z,1003.63
2018-07-20T06:41:06.738Z,1003.59
2018-07-20T06:42:06.673Z,1003.57
2018-07-20T06:43:06.627Z,1003.60
2018-07-20T06:44:06.587Z,1003.65
2018-07-20T06:45:06.538Z,1003.60
2018-07-20T06:46:06.515Z,1003.63
2018-07-20T06:47:06.445Z,1003.63
2018-07-20T06:48:06.402Z,1003.61
2018-07-20T06:49:06.358Z,1003.63
2018-07-20T06:50:06.312Z,1003.66
2018-07-20T06:51:06.299Z,1003.66
2018-07-20T06:52:06.223Z,1003.70
2018-07-20T06:53:06.181Z,1003.66
2018-07-20T06:54:06.142Z,1003.66
2018-07-20T06:55:06.095Z,1003.65
2018-07-20T06:56:06.076Z,1003.68
2018-07-20T06:57:06.027Z,1003.69
2018-07-20T06:58:05.959Z,1003.67
2018-07-20T06:59:05.911Z,1003.66
2018-07-20T07:00:05.871Z,1003.63
2018-07-20T07:01:05.826Z,1003.62
2018-07-20T07:02:05.810Z,1003.62
2018-07-20T07:03:05.735Z,1003.63
2018-07-20T07:04:05.691Z,1003.65
2018-07-20T07:05:05.648Z,1003.67
2018-07-20T07:06:05.607Z,1003.65
2018-07-20T07:07:05.585Z,1003.64
2018-07-20T07:08:05.515Z,1003.60
2018-07-20T07:09:05.473Z,1003.60
2018-07-20T07:10:05.438Z,1003.62
2018-07-20T07:11:05.386Z,1003.58
2018-07-20T07:12:05.365Z,1003.61
2018-07-20T07:13:05.295Z,1003.62
2018-07-20T07:14:05.257Z,1003.58
2018-07-20T07:15:05.215Z,1003.59
2018-07-20T07:16:05.168Z,1003.62
2018-07-20T07:17:05.148Z,1003.65
2018-07-20T07:18:05.078Z,1003.62
2018-07-20T07:19:05.035Z,1003.57
2018-07-20T07:20:04.991Z,1003.65
2018-07-20T07:21:04.949Z,1003.64
2018-07-20T07:22:04.926Z,1003.58
2018-07-20T07:23:04.859Z,1003.62
2018-07-20T07:24:04.818Z,1003.61
2018-07-20T07:25:04.773Z,1003.61
2018-07-20T07:26:04.732Z,1003.58
2018-07-20T07:27:04.710Z,1003.58
2018-07-20T07:28:04.643Z,1003.58
2018-07-20T07:29:04.619Z,1003.56
2018-07-20T07:30:04.555Z,1003.60
2018-07-20T07:31:04.513Z,1003.62
2018-07-20T07:32:04.497Z,1003.66
2018-07-20T07:33:04.428Z,1003.62
2018-07-20T07:34:04.386Z,1003.60
2018-07-20T07:35:04.342Z,1003.61
2018-07-20T07:36:04.299Z,1003.63
2018-07-20T07:37:04.281Z,1003.63
2018-07-20T07:38:04.215Z,1003.65
2018-07-20T07:39:04.169Z,1003.66
2018-07-20T07:40:04.126Z,1003.61
2018-07-20T07:41:04.084Z,1003.63
2018-07-20T07:42:04.106Z,1003.64
2018-07-20T07:43:04.002Z,1003.65
2018-07-20T07:44:03.961Z,1003.62
2018-07-20T07:45:03.917Z,1003.61
2018-07-20T07:46:03.870Z,1003.61
2018-07-20T07:47:03.854Z,1003.63
2018-07-20T07:48:03.787Z,1003.61
2018-07-20T07:49:03.744Z,1003.60
2018-07-20T07:50:03.709Z,1003.58
2018-07-20T07:51:03.658Z,1003.58
2018-07-20T07:52:03.641Z,1003.57
2018-07-20T07:53:03.572Z,1003.60
2018-07-20T07:54:03.535Z,1003.59
2018-07-20T07:55:03.492Z,1003.57
2018-07-20T07:56:03.446Z,1003.53
2018-07-20T07:57:03.428Z,1003.58
2018-07-20T07:58:03.368Z,1003.56
2018-07-20T07:59:03.326Z,1003.55
2018-07-20T08:00:03.287Z,1003.54
2018-07-20T08:01:03.236Z,1003.53
2018-07-20T08:02:03.217Z,1003.50
2018-07-20T08:03:03.170Z,1003.48
2018-07-20T08:04:03.113Z,1003.50
2018-07-20T08:05:03.070Z,1003.45
2018-07-20T08:06:03.032Z,1003.46
2018-07-20T08:07:03.013Z,1003.44
2018-07-20T08:08:02.944Z,1003.42
2018-07-20T08:09:02.953Z,1003.41
2018-07-20T08:10:03.037Z,1003.43
2018-07-20T08:11:02.823Z,1003.43
2018-07-20T08:12:02.810Z,1003.40
2018-07-20T08:13:02.742Z,1003.39
2018-07-20T08:14:02.693Z,1003.42
2018-07-20T08:15:02.649Z,1003.40
2018-07-20T08:16:02.608Z,1003.39
2018-07-20T08:17:02.594Z,1003.40
2018-07-20T08:18:02.527Z,1003.41
2018-07-20T08:19:02.485Z,1003.38
2018-07-20T08:20:02.442Z,1003.38
2018-07-20T08:21:02.411Z,1003.40
2018-07-20T08:22:02.389Z,1003.39
2018-07-20T08:23:02.318Z,1003.41
2018-07-20T08:24:02.277Z,1003.44
2018-07-20T08:25:02.243Z,1003.41
2018-07-20T08:26:02.195Z,1003.44
2018-07-20T08:27:02.177Z,1003.43
2018-07-20T08:28:02.112Z,1003.46
2018-07-20T08:29:02.070Z,1003.42
2018-07-20T08:30:02.031Z,1003.37
2018-07-20T08:31:01.986Z,1003.38
2018-07-20T08:32:01.975Z,1003.37
2018-07-20T08:33:01.926Z,1003.36
2018-07-20T08:34:01.865Z,1003.38
2018-07-20T08:35:01.820Z,1003.35
2018-07-20T08:36:01.779Z,1003.34
2018-07-20T08:37:01.742Z,1003.33
2018-07-20T08:38:01.721Z,1003.28
2018-07-20T08:39:01.664Z,1003.29
2018-07-20T08:40:01.618Z,1003.28
2018-07-20T08:41:01.575Z,1003.25
2018-07-20T08:42:01.537Z,1003.25
2018-07-20T08:43:01.517Z,1003.25
2018-07-20T08:44:01.449Z,1003.25
2018-07-20T08:45:01.413Z,1003.23
2018-07-20T08:46:01.375Z,1003.22
2018-07-20T08:47:01.328Z,1003.21
2018-07-20T08:48:01.308Z,1003.20
2018-07-20T08:49:01.245Z,1003.18
2018-07-20T08:50:01.204Z,1003.15
2018-07-20T08:51:01.158Z,1003.12
2018-07-20T08:52:01.124Z,1003.13
2018-07-20T08:53:01.110Z,1003.16
2018-07-20T08:54:01.047Z,1003.16
2018-07-20T08:55:01.002Z,1003.18
2018-07-20T08:56:00.965Z,1003.16
2018-07-20T08:57:00.916Z,1003.16
2018-07-20T08:58:00.900Z,1003.16
2018-07-20T08:59:00.896Z,1003.13
2018-07-20T09:00:00.852Z,1003.13
2018-07-20T09:01:00.758Z,1003.10
2018-07-20T09:02:00.720Z,1003.12
2018-07-20T09:03:00.704Z,1003.15
2018-07-20T09:04:00.635Z,1003.14
2018-07-20T09:05:00.594Z,1003.09
2018-07-20T09:06:00.551Z,1003.12
2018-07-20T09:07:00.509Z,1003.09
2018-07-20T09:08:00.498Z,1003.14
2018-07-20T09:09:00.434Z,1003.08
2018-07-20T09:10:00.399Z,1003.06
2018-07-20T09:11:00.351Z,1003.07
2018-07-20T09:12:00.311Z,1003.07
2018-07-20T09:13:00.290Z,1003.07
2018-07-20T09:14:00.229Z,1003.11
2018-07-20T09:15:00.188Z,1003.05
2018-07-20T09:16:00.144Z,1003.04
2018-07-20T09:17:00.114Z,1003.02
2018-07-20T09:18:00.090Z,1003.03
2018-07-20T09:19:00.023Z,1003.05
2018-07-20T09:19:59.988Z,1003.02
2018-07-20T09:20:59.959Z,1003.05
2018-07-20T09:21:59.902Z,1003.04
2018-07-20T09:22:59.884Z,1003.00
2018-07-20T09:23:59.822Z,1003.00
2018-07-20T09:24:59.785Z,1002.99
2018-07-20T09:25:59.743Z,1002.99
2018-07-20T09:26:59.698Z,1003.01
2018-07-20T09:27:59.681Z,1003.00
2018-07-20T09:28:59.620Z,1002.98
2018-07-20T09:29:59.581Z,1002.92
2018-07-20T09:30:59.543Z,1002.92
2018-07-20T09:31:59.496Z,1002.95
2018-07-20T09:32:59.488Z,1002.92
2018-07-20T09:33:59.472Z,1002.93
2018-07-20T09:34:59.377Z,1002.93
2018-07-20T09:35:59.338Z,1002.94
2018-07-20T09:36:59.298Z,1002.95
2018-07-20T09:37:59.287Z,1002.96
2018-07-20T09:38:59.220Z,1002.94
2018-07-20T09:39:59.177Z,1002.92
2018-07-20T09:40:59.147Z,1002.94
2018-07-20T09:41:59.095Z,1002.90
2018-07-20T09:42:59.078Z,1002.88
2018-07-20T09:43:59.014Z,1002.91
2018-07-20T09:44:58.981Z,1002.92
2018-07-20T09:45:58.936Z,1002.88
2018-07-20T09:46:58.893Z,1002.92
2018-07-20T09:47:58.878Z,1002.90
2018-07-20T09:48:58.837Z,1002.85
2018-07-20T09:49:58.772Z,1002.84
2018-07-20T09:50:58.738Z,1002.90
2018-07-20T09:51:58.694Z,1002.89
2018-07-20T09:52:58.677Z,1002.89
2018-07-20T09:53:58.619Z,1002.92
2018-07-20T09:54:58.572Z,1002.87
2018-07-20T09:55:58.536Z,1002.85
2018-07-20T09:56:58.498Z,1002.88
2018-07-20T09:57:58.486Z,1002.90
2018-07-20T09:58:58.421Z,1002.90
2018-07-20T09:59:58.374Z,1002.91
2018-07-20T10:00:58.334Z,1002.87
2018-07-20T10:01:58.300Z,1002.87
2018-07-20T10:02:58.261Z,1002.86
2018-07-20T10:03:58.241Z,1002.89
2018-07-20T10:04:58.232Z,1002.84
2018-07-20T10:05:58.134Z,1002.86
2018-07-20T10:06:58.098Z,1002.80
2018-07-20T10:07:58.058Z,1002.84
2018-07-20T10:08:58.043Z,1002.83
2018-07-20T10:09:57.983Z,1002.84
2018-07-20T10:10:57.937Z,1002.82
2018-07-20T10:11:57.901Z,1002.84
2018-07-20T10:12:57.859Z,1002.82
2018-07-20T10:13:57.844Z,1002.83
2018-07-20T10:14:57.780Z,1002.82
2018-07-20T10:15:57.739Z,1002.84
2018-07-20T10:16:57.701Z,1002.84
2018-07-20T10:17:57.661Z,1002.80
2018-07-20T10:18:57.680Z,1002.82
2018-07-20T10:19:57.589Z,1002.80
2018-07-20T10:20:57.540Z,1002.82
2018-07-20T10:21:57.506Z,1002.80
2018-07-20T10:22:57.466Z,1002.81
2018-07-20T10:23:57.448Z,1002.81
2018-07-20T10:24:57.391Z,1002.80
2018-07-20T10:25:57.344Z,1002.78
2018-07-20T10:26:57.312Z,1002.76
2018-07-20T10:27:57.267Z,1002.79
2018-07-20T10:28:57.252Z,1002.77
2018-07-20T10:29:57.185Z,1002.77
2018-07-20T10:30:57.150Z,1002.78
2018-07-20T10:31:57.110Z,1002.77
2018-07-20T10:32:57.067Z,1002.77
2018-07-20T10:33:57.063Z,1002.73
2018-07-20T10:34:56.987Z,1002.71
2018-07-20T10:35:56.949Z,1002.68
2018-07-20T10:36:56.910Z,1002.73
2018-07-20T10:37:56.870Z,1002.69
2018-07-20T10:38:56.853Z,1002.66
2018-07-20T10:39:56.791Z,1002.67
2018-07-20T10:40:56.752Z,1002.64
2018-07-20T10:41:56.715Z,1002.67
2018-07-20T10:42:56.673Z,1002.65
2018-07-20T10:43:56.654Z,1002.68
2018-07-20T10:44:56.593Z,1002.65
2018-07-20T10:45:56.558Z,1002.67
2018-07-20T10:46:56.540Z,1002.65
2018-07-20T10:47:56.477Z,1002.60
2018-07-20T10:48:56.460Z,1002.57
2018-07-20T10:49:56.414Z,1002.62
2018-07-20T10:50:56.362Z,1002.64
2018-07-20T10:51:56.344Z,1002.61
2018-07-20T10:52:56.283Z,1002.60
2018-07-20T10:53:56.292Z,1002.67
2018-07-20T10:54:56.207Z,1002.63
2018-07-20T10:55:56.162Z,1002.65
2018-07-20T10:56:56.120Z,1002.62
2018-07-20T10:57:56.087Z,1002.69
2018-07-20T10:58:56.072Z,1002.62
2018-07-20T10:59:56.005Z,1002.62
2018-07-20T11:00:55.968Z,1002.61
2018-07-20T11:01:55.930Z,1002.66
2018-07-20T11:02:55.888Z,1002.65
2018-07-20T11:03:55.873Z,1002.63
2018-07-20T11:04:55.808Z,1002.58
2018-07-20T11:05:55.775Z,1002.60
2018-07-20T11:06:55.731Z,1002.61
2018-07-20T11:07:55.696Z,1002.58
2018-07-20T11:08:55.679Z,1002.62
2018-07-20T11:09:55.621Z,1002.61
2018-07-20T11:10:55.570Z,1002.57
2018-07-20T11:11:55.538Z,1002.52
2018-07-20T11:12:55.498Z,1002.56
2018-07-20T11:13:55.483Z,1002.53
2018-07-20T11:14:55.421Z,1002.54
2018-07-20T11:15:55.382Z,1002.52
2018-07-20T11:16:55.343Z,1002.45
2018-07-20T11:17:55.312Z,1002.44
2018-07-20T11:18:55.285Z,1002.45
2018-07-20T11:19:55.223Z,1002.42
2018-07-20T11:20:55.183Z,1002.38
2018-07-20T11:21:55.149Z,1002.39
2018-07-20T11:22:55.111Z,1002.40
2018-07-20T11:23:55.100Z,1002.41
2018-07-20T11:24:55.030Z,1002.43
2018-07-20T11:25:54.988Z,1002.42
2018-07-20T11:26:54.952Z,1002.43
2018-07-20T11:27:54.959Z,1002.41
2018-07-20T11:28:54.878Z,1002.42
2018-07-20T11:29:54.889Z,1002.39
2018-07-20T11:30:54.798Z,1002.35
2018-07-20T11:31:54.759Z,1002.36
2018-07-20T11:32:54.718Z,1002.39
2018-07-20T11:33:54.683Z,1002.33
2018-07-20T11:34:54.669Z,1002.36
2018-07-20T11:35:54.605Z,1002.40
2018-07-20T11:36:54.563Z,1002.39
2018-07-20T11:37:54.524Z,1002.38
2018-07-20T11:38:54.484Z,1002.34
2018-07-20T11:39:54.476Z,1002.31
2018-07-20T11:40:54.413Z,1002.37
2018-07-20T11:41:54.397Z,1002.36
2018-07-20T11:42:54.334Z,1002.36
2018-07-20T11:43:54.296Z,1002.34
2018-07-20T11:44:54.281Z,1002.35
2018-07-20T11:45:54.217Z,1002.36
2018-07-20T11:46:54.190Z,1002.33
2018-07-20T11:47:54.137Z,1002.35
2018-07-20T11:48:54.100Z,1002.29
2018-07-20T11:49:54.102Z,1002.24
2018-07-20T11:50:54.019Z,1002.20
2018-07-20T11:51:53.981Z,1002.16
2018-07-20T11:52:53.940Z,1002.18
2018-07-20T11:53:53.901Z,1002.16
2018-07-20T11:54:53.884Z,1002.18
2018-07-20T11:55:53.834Z,1002.16
2018-07-20T11:56:53.784Z,1002.15
2018-07-20T11:57:53.748Z,1002.21
2018-07-20T11:58:53.712Z,1002.12
2018-07-20T11:59:53.691Z,1002.11
2018-07-20T12:00:53.623Z,1002.12
2018-07-20T12:01:53.630Z,1002.09
2018-07-20T12:02:53.545Z,1002.10
2018-07-20T12:03:53.510Z,1002.08
2018-07-20T12:04:53.489Z,1002.07